Time;durP1;ratioP1;P1;durP2;ratioP2;P2;SDS_P1;SDS_P2;PMS_P1;PMS_P2;Temp;Humidity;BMP_temperature;BMP_pressure;BME280_temperature;BME280_humidity;BME280_pressure;Samples;Min_cycle;Max_cycle;Signal;HPM_P1;HPM_P2
2024/03/22 00:01:48;;;;;;;34.53;16.25;;;9.10;99.90;;;;;;5031926;28;20039;-47
2024/03/22 00:04:14;;;;;;;28.23;14.30;;;9.10;99.90;;;;;;5034628;28;20030;-47
2024/03/22 00:06:41;;;;;;;34.90;15.55;;;9.10;99.90;;;;;;5036863;28;20103;-45
2024/03/22 00:09:07;;;;;;;35.63;15.50;;;9.10;99.90;;;;;;5036478;28;20018;-44
2024/03/22 00:11:33;;;;;;;39.05;16.73;;;9.10;99.90;;;;;;5036474;28;20470;-45
2024/03/22 00:13:58;;;;;;;34.95;16.63;;;9.10;99.90;;;;;;5040926;28;20025;-47
2024/03/22 00:16:24;;;;;;;36.33;16.95;;;9.10;99.90;;;;;;5018109;28;20057;-46
2024/03/22 00:18:50;;;;;;;38.20;17.23;;;9.10;99.90;;;;;;5034777;28;20125;-46
2024/03/22 00:21:15;;;;;;;35.38;17.20;;;9.20;99.90;;;;;;5039166;28;20025;-45
2024/03/22 00:23:41;;;;;;;36.42;16.77;;;9.20;99.90;;;;;;5034333;28;20029;-45
2024/03/22 00:26:07;;;;;;;37.55;17.23;;;9.20;99.90;;;;;;5035386;28;20029;-46
2024/03/22 00:28:33;;;;;;;39.40;18.17;;;9.20;99.90;;;;;;5033455;28;20072;-47
2024/03/22 00:30:58;;;;;;;38.35;18.55;;;9.30;99.90;;;;;;5033587;28;20057;-45
2024/03/22 00:33:24;;;;;;;38.63;17.55;;;9.30;99.90;;;;;;5034136;28;20029;-46
2024/03/22 00:35:50;;;;;;;40.63;17.65;;;9.30;99.90;;;;;;5038336;28;20029;-44
2024/03/22 00:38:15;;;;;;;37.53;18.05;;;9.30;99.90;;;;;;5039043;28;20036;-44
2024/03/22 00:40:41;;;;;;;41.90;18.60;;;9.30;99.90;;;;;;5036520;28;20040;-47
2024/03/22 00:43:07;;;;;;;36.20;18.90;;;9.40;99.90;;;;;;5042468;28;20021;-46
2024/03/22 00:45:32;;;;;;;41.92;19.08;;;9.40;99.90;;;;;;5035434;28;20064;-46
2024/03/22 00:47:58;;;;;;;39.35;18.00;;;9.40;99.90;;;;;;5044795;28;20022;-45
2024/03/22 00:50:24;;;;;;;39.83;18.58;;;9.40;99.90;;;;;;5040254;28;20025;-48
2024/03/22 00:52:50;;;;;;;34.22;17.17;;;9.40;99.90;;;;;;5036520;28;20029;-47
2024/03/22 00:55:16;;;;;;;35.75;17.10;;;9.40;99.90;;;;;;5042972;28;20426;-48
2024/03/22 00:57:41;;;;;;;35.97;16.45;;;9.30;99.90;;;;;;5036243;28;20049;-45
2024/03/22 01:00:07;;;;;;;35.03;17.17;;;9.30;99.90;;;;;;5039197;28;20043;-44
2024/03/22 01:02:33;;;;;;;37.72;17.30;;;9.30;99.90;;;;;;5039769;28;20506;-45
2024/03/22 01:04:58;;;;;;;40.58;18.52;;;9.20;99.90;;;;;;5037606;28;20059;-46
2024/03/22 01:07:24;;;;;;;44.47;17.50;;;9.10;99.90;;;;;;5042105;28;20021;-45
2024/03/22 01:09:49;;;;;;;40.95;18.10;;;9.10;99.90;;;;;;5037227;28;20131;-44
2024/03/22 01:12:15;;;;;;;38.70;17.98;;;9.00;99.90;;;;;;5041325;28;20116;-47
2024/03/22 01:14:41;;;;;;;40.40;17.38;;;9.00;99.90;;;;;;5038778;28;20036;-46
2024/03/22 01:17:06;;;;;;;39.13;17.70;;;8.90;99.90;;;;;;5040856;28;20036;-45
2024/03/22 01:19:33;;;;;;;43.72;18.90;;;8.90;99.90;;;;;;5043043;28;20037;-45
2024/03/22 01:21:58;;;;;;;35.80;17.13;;;8.80;99.90;;;;;;5025175;28;20107;-46
2024/03/22 01:24:24;;;;;;;41.92;19.55;;;8.80;99.90;;;;;;5037229;28;20112;-45
2024/03/22 01:26:49;;;;;;;40.53;18.75;;;8.80;99.90;;;;;;5042479;28;20041;-44
2024/03/22 01:29:15;;;;;;;35.53;17.15;;;8.80;99.90;;;;;;5035096;28;20017;-45
2024/03/22 01:31:40;;;;;;;40.10;18.45;;;8.80;99.90;;;;;;5042119;28;20027;-44
2024/03/22 01:34:06;;;;;;;40.58;19.42;;;8.80;99.90;;;;;;5034499;28;20022;-46
2024/03/22 01:36:31;;;;;;;46.08;17.75;;;8.90;99.90;;;;;;5046690;28;20033;-47
2024/03/22 01:38:57;;;;;;;36.53;17.75;;;8.90;99.90;;;;;;5045107;28;20036;-45
2024/03/22 01:41:23;;;;;;;42.20;17.77;;;9.00;99.90;;;;;;5038741;28;20037;-46
2024/03/22 01:43:48;;;;;;;40.92;18.17;;;9.00;99.90;;;;;;5036006;28;20068;-46
2024/03/22 01:46:14;;;;;;;40.42;18.52;;;9.00;99.90;;;;;;5041983;28;20036;-45
2024/03/22 01:48:40;;;;;;;31.10;15.52;;;9.00;99.90;;;;;;5037780;28;20112;-45
2024/03/22 01:51:06;;;;;;;41.33;16.08;;;9.10;99.90;;;;;;5034056;28;20029;-45
2024/03/22 01:53:34;;;;;;;37.53;16.10;;;9.10;99.90;;;;;;5036735;28;20022;-46
2024/03/22 01:56:00;;;;;;;38.95;16.05;;;9.10;99.90;;;;;;5047625;28;20025;-45
2024/03/22 01:58:25;;;;;;;32.80;15.95;;;9.10;99.90;;;;;;5037373;28;20476;-46
2024/03/22 02:00:51;;;;;;;33.42;15.77;;;9.10;99.90;;;;;;5039861;28;20029;-48
2024/03/22 02:03:16;;;;;;;34.13;15.63;;;9.10;99.90;;;;;;5045865;28;20021;-46
2024/03/22 02:05:42;;;;;;;34.03;15.27;;;9.10;99.90;;;;;;5045734;28;20112;-45
2024/03/22 02:08:07;;;;;;;29.88;15.73;;;9.10;99.90;;;;;;5037462;28;20108;-45
2024/03/22 02:10:33;;;;;;;26.63;13.18;;;9.10;99.90;;;;;;5033945;28;20113;-45
2024/03/22 02:12:58;;;;;;;36.70;16.10;;;9.20;99.90;;;;;;5036974;28;20652;-45
2024/03/22 02:15:24;;;;;;;34.63;15.48;;;9.10;99.90;;;;;;5033371;28;20032;-45
2024/03/22 02:17:49;;;;;;;35.28;15.23;;;9.10;99.90;;;;;;5034443;28;20288;-49
2024/03/22 02:20:15;;;;;;;33.22;15.13;;;9.10;99.90;;;;;;5033484;28;20506;-45
2024/03/22 02:22:41;;;;;;;34.83;14.73;;;9.10;99.90;;;;;;5041167;28;20039;-45
2024/03/22 02:25:07;;;;;;;29.73;13.98;;;9.20;99.90;;;;;;5041629;28;20029;-45
2024/03/22 02:27:33;;;;;;;36.40;14.18;;;9.20;99.90;;;;;;5024429;28;20053;-45
2024/03/22 02:29:59;;;;;;;34.05;14.05;;;9.20;99.90;;;;;;5041798;28;20082;-50
2024/03/22 02:32:25;;;;;;;32.92;15.07;;;9.20;99.90;;;;;;5036766;28;20402;-47
2024/03/22 02:34:50;;;;;;;36.22;15.25;;;9.20;99.90;;;;;;5038650;28;20545;-51
2024/03/22 02:37:16;;;;;;;29.67;14.80;;;9.20;99.90;;;;;;5033109;28;20096;-45
2024/03/22 02:39:41;;;;;;;32.35;14.30;;;9.20;99.90;;;;;;5040444;28;20029;-51
2024/03/22 02:42:07;;;;;;;28.92;13.43;;;9.10;99.90;;;;;;5032049;28;20028;-50
2024/03/22 02:44:32;;;;;;;29.05;13.20;;;9.10;99.90;;;;;;5038941;28;20033;-51
2024/03/22 02:46:58;;;;;;;27.85;13.85;;;9.10;99.90;;;;;;5042242;28;20148;-54
2024/03/22 02:49:25;;;;;;;31.50;13.32;;;9.10;99.90;;;;;;5035484;28;20021;-46
2024/03/22 02:51:50;;;;;;;27.88;13.40;;;9.20;99.90;;;;;;5035248;28;20025;-45
2024/03/22 02:54:16;;;;;;;35.33;12.85;;;9.20;99.90;;;;;;5039746;28;20021;-46
2024/03/22 02:56:41;;;;;;;31.70;12.55;;;9.20;99.90;;;;;;5034348;28;20031;-50
2024/03/22 02:59:07;;;;;;;26.75;12.35;;;9.20;99.90;;;;;;5039307;28;20511;-52
2024/03/22 03:01:32;;;;;;;29.88;13.05;;;9.20;99.90;;;;;;5036288;28;20140;-47
2024/03/22 03:03:58;;;;;;;26.45;12.20;;;9.30;99.90;;;;;;5039525;28;20086;-52
2024/03/22 03:06:24;;;;;;;30.73;13.18;;;9.30;99.90;;;;;;5040088;28;20029;-52
2024/03/22 03:08:49;;;;;;;26.20;13.23;;;9.30;99.90;;;;;;5039412;28;20044;-52
2024/03/22 03:11:15;;;;;;;35.00;13.75;;;9.30;99.90;;;;;;5034697;28;20047;-45
2024/03/22 03:13:41;;;;;;;30.45;13.23;;;9.30;99.90;;;;;;5039161;28;20033;-48
2024/03/22 03:16:06;;;;;;;25.05;12.35;;;9.30;99.90;;;;;;5036740;28;20525;-49
2024/03/22 03:18:32;;;;;;;34.22;14.60;;;9.40;99.90;;;;;;5037838;28;20029;-49
2024/03/22 03:20:57;;;;;;;22.70;11.48;;;9.40;99.90;;;;;;5035491;28;20105;-46
2024/03/22 03:23:23;;;;;;;30.23;12.55;;;9.40;99.90;;;;;;5033281;28;20061;-47
2024/03/22 03:25:48;;;;;;;25.73;12.63;;;9.40;99.90;;;;;;5039490;28;20064;-51
2024/03/22 03:28:14;;;;;;;27.95;13.85;;;9.40;99.90;;;;;;5032426;28;20044;-50
2024/03/22 03:30:40;;;;;;;25.60;11.63;;;9.40;99.90;;;;;;5042800;28;20034;-48
2024/03/22 03:33:05;;;;;;;26.73;12.25;;;9.40;99.90;;;;;;5018889;28;20128;-49
2024/03/22 03:35:31;;;;;;;22.75;10.93;;;9.50;99.90;;;;;;5036855;28;20026;-51
2024/03/22 03:37:56;;;;;;;22.23;11.30;;;9.50;99.90;;;;;;5038194;28;20564;-45
2024/03/22 03:40:24;;;;;;;24.65;11.05;;;9.50;99.90;;;;;;5032246;28;20033;-48
2024/03/22 03:42:50;;;;;;;26.48;11.40;;;9.50;99.90;;;;;;5035962;28;20089;-48
2024/03/22 03:45:16;;;;;;;24.30;11.00;;;9.50;99.90;;;;;;5033470;28;20479;-49
2024/03/22 03:47:42;;;;;;;29.40;11.50;;;9.50;99.90;;;;;;5032986;28;20109;-52
2024/03/22 03:50:08;;;;;;;21.67;10.85;;;9.50;99.90;;;;;;5035704;28;20065;-51
2024/03/22 03:52:33;;;;;;;27.58;11.23;;;9.50;99.90;;;;;;5033687;28;20095;-47
2024/03/22 03:54:59;;;;;;;24.05;10.75;;;9.50;99.90;;;;;;5040427;28;20444;-47
2024/03/22 03:57:25;;;;;;;25.40;10.68;;;9.50;99.90;;;;;;5037588;28;20029;-47
2024/03/22 03:59:50;;;;;;;23.10;10.98;;;9.50;99.90;;;;;;5034232;28;20450;-48
2024/03/22 04:02:16;;;;;;;25.10;10.52;;;9.50;99.90;;;;;;5031754;28;20029;-45
2024/03/22 04:04:41;;;;;;;20.55;10.40;;;9.50;99.90;;;;;;5031380;28;20029;-47
2024/03/22 04:07:07;;;;;;;21.20;10.57;;;9.50;99.90;;;;;;5035408;28;20116;-47
2024/03/22 04:09:33;;;;;;;25.45;11.32;;;9.50;99.90;;;;;;5032315;28;20021;-51
2024/03/22 04:11:58;;;;;;;28.00;12.40;;;9.50;99.90;;;;;;5040152;28;20020;-53
2024/03/22 04:14:25;;;;;;;26.70;13.00;;;9.50;99.90;;;;;;5043261;28;20033;-47
2024/03/22 04:16:51;;;;;;;20.15;10.15;;;9.40;99.90;;;;;;5038235;28;20029;-52
2024/03/22 04:19:16;;;;;;;25.13;11.30;;;9.50;99.90;;;;;;5033733;28;20029;-45
2024/03/22 04:21:42;;;;;;;23.75;11.90;;;9.50;99.90;;;;;;5031220;28;20025;-48
2024/03/22 04:24:08;;;;;;;27.38;11.98;;;9.40;99.90;;;;;;5032529;28;20037;-48
2024/03/22 04:26:33;;;;;;;28.50;11.75;;;9.40;99.90;;;;;;5040794;28;20129;-56
2024/03/22 04:28:59;;;;;;;26.65;11.63;;;9.40;99.90;;;;;;5033558;28;20037;-47
2024/03/22 04:31:24;;;;;;;25.45;10.18;;;9.40;99.90;;;;;;5031366;28;20042;-48
2024/03/22 04:33:50;;;;;;;22.05;11.35;;;9.50;99.90;;;;;;5034988;28;20112;-50
2024/03/22 04:36:16;;;;;;;24.23;11.43;;;9.40;99.90;;;;;;5019015;28;20034;-53
2024/03/22 04:38:41;;;;;;;26.63;10.23;;;9.50;99.90;;;;;;5033258;28;20029;-47
2024/03/22 04:41:07;;;;;;;20.92;10.82;;;9.50;99.90;;;;;;5032366;28;20033;-46
2024/03/22 04:43:32;;;;;;;22.15;10.13;;;9.50;99.90;;;;;;5033895;28;20033;-49
2024/03/22 04:45:58;;;;;;;24.42;11.23;;;9.50;99.90;;;;;;5037047;28;20031;-53
2024/03/22 04:48:24;;;;;;;24.35;10.93;;;9.50;99.90;;;;;;5035719;28;20026;-48
2024/03/22 04:50:51;;;;;;;26.42;11.60;;;9.50;99.90;;;;;;5032930;28;20025;-52
2024/03/22 04:53:17;;;;;;;17.17;8.85;;;9.50;99.90;;;;;;5034026;28;20040;-50
2024/03/22 04:55:44;;;;;;;23.08;9.70;;;9.60;99.90;;;;;;5032131;28;20048;-55
2024/03/22 04:58:18;;;;;;;20.75;9.48;;;9.60;99.90;;;;;;5031990;28;20156;-49
2024/03/22 05:00:44;;;;;;;21.42;10.27;;;9.50;99.90;;;;;;5030832;28;20082;-46
2024/03/22 05:03:10;;;;;;;20.60;9.80;;;9.50;99.90;;;;;;5035389;28;20433;-48
2024/03/22 05:05:36;;;;;;;19.42;10.50;;;9.40;99.90;;;;;;5040710;28;20026;-48
2024/03/22 05:08:02;;;;;;;26.63;10.90;;;9.40;99.90;;;;;;5044436;28;20112;-52
2024/03/22 05:10:29;;;;;;;23.38;9.75;;;9.50;99.90;;;;;;5030429;28;20079;-47
2024/03/22 05:12:55;;;;;;;23.30;11.27;;;9.40;99.90;;;;;;5030903;28;20021;-49
2024/03/22 05:15:21;;;;;;;22.98;9.95;;;9.40;99.90;;;;;;5030075;28;20028;-46
2024/03/22 05:17:46;;;;;;;19.17;9.52;;;9.40;99.90;;;;;;5031221;28;20022;-49
2024/03/22 05:20:12;;;;;;;17.92;9.00;;;9.40;99.90;;;;;;5033262;28;20033;-48
2024/03/22 05:22:38;;;;;;;23.95;10.35;;;9.50;99.90;;;;;;5036881;28;20049;-53
2024/03/22 05:25:04;;;;;;;24.23;11.23;;;9.50;99.90;;;;;;5041374;28;20045;-49
2024/03/22 05:27:32;;;;;;;24.55;10.75;;;9.50;99.90;;;;;;5074682;22;20036;-48
2024/03/22 05:29:58;;;;;;;19.25;10.05;;;9.50;99.90;;;;;;5070469;28;20103;-48
2024/03/22 05:32:24;;;;;;;16.83;8.43;;;9.50;99.90;;;;;;5072954;28;20025;-50
2024/03/22 05:34:50;;;;;;;20.60;9.57;;;9.60;99.90;;;;;;5074371;28;20021;-48
2024/03/22 05:37:15;;;;;;;19.90;9.77;;;9.60;99.90;;;;;;5060329;28;20101;-48
2024/03/22 05:39:42;;;;;;;22.52;9.68;;;9.60;99.90;;;;;;5054966;28;20035;-48
2024/03/22 05:42:07;;;;;;;18.25;8.68;;;9.60;99.90;;;;;;5053640;28;20441;-48
2024/03/22 05:44:33;;;;;;;20.23;9.90;;;9.60;99.90;;;;;;5040850;28;20075;-49
2024/03/22 05:46:59;;;;;;;23.77;12.00;;;9.60;99.90;;;;;;5055124;28;20044;-53
2024/03/22 05:49:24;;;;;;;19.40;10.23;;;9.60;99.90;;;;;;5053967;28;20124;-48
2024/03/22 05:51:50;;;;;;;18.08;9.45;;;9.70;99.90;;;;;;5054278;28;20052;-49
2024/03/22 05:54:16;;;;;;;16.25;8.68;;;9.70;99.90;;;;;;5055282;28;20091;-52
2024/03/22 05:56:41;;;;;;;18.73;9.50;;;9.70;99.90;;;;;;5052468;28;20355;-50
2024/03/22 05:59:07;;;;;;;15.43;9.13;;;9.70;99.90;;;;;;5050400;28;20052;-50
2024/03/22 06:01:32;;;;;;;18.17;8.50;;;9.80;99.90;;;;;;5051373;28;20071;-50
2024/03/22 06:03:58;;;;;;;21.90;9.75;;;9.80;99.90;;;;;;5048656;28;20040;-50
2024/03/22 06:06:27;;;;;;;19.05;8.88;;;9.80;99.90;;;;;;5051940;28;20031;-47
2024/03/22 06:08:54;;;;;;;17.40;8.38;;;9.90;99.90;;;;;;5049162;28;20120;-48
2024/03/22 06:11:20;;;;;;;18.25;8.63;;;9.90;99.90;;;;;;5049490;28;20919;-47
2024/03/22 06:13:46;;;;;;;15.13;8.70;;;9.90;99.90;;;;;;5049456;28;20053;-46
2024/03/22 06:16:12;;;;;;;16.63;8.82;;;10.00;99.90;;;;;;5051622;28;20060;-47
2024/03/22 06:18:37;;;;;;;15.80;8.63;;;10.10;99.90;;;;;;5049613;28;20305;-47
2024/03/22 06:21:03;;;;;;;19.75;8.27;;;10.10;99.90;;;;;;5049412;28;20060;-46
2024/03/22 06:23:29;;;;;;;16.75;8.60;;;10.20;99.90;;;;;;5051753;28;20040;-46
2024/03/22 06:25:55;;;;;;;17.85;7.95;;;10.30;99.90;;;;;;5051142;28;20443;-47
2024/03/22 06:28:21;;;;;;;17.10;8.10;;;10.30;99.90;;;;;;5050970;28;20537;-45
2024/03/22 06:30:47;;;;;;;17.10;7.72;;;10.40;99.90;;;;;;5050783;28;20029;-47
2024/03/22 06:33:12;;;;;;;19.77;8.40;;;10.50;99.90;;;;;;5048294;28;20112;-47
2024/03/22 06:35:39;;;;;;;21.92;9.55;;;10.60;99.90;;;;;;5051677;28;20107;-47
2024/03/22 06:38:04;;;;;;;15.65;7.80;;;10.70;99.90;;;;;;5049535;28;20112;-46
2024/03/22 06:40:30;;;;;;;19.63;7.55;;;10.80;99.90;;;;;;5048777;28;20037;-47
2024/03/22 06:42:56;;;;;;;14.48;7.05;;;10.80;99.90;;;;;;5032779;28;20046;-48
2024/03/22 06:45:22;;;;;;;12.52;7.25;;;10.90;99.90;;;;;;5049418;28;20441;-46
2024/03/22 06:47:48;;;;;;;17.80;8.55;;;10.90;99.90;;;;;;5050887;28;20032;-45
2024/03/22 06:50:13;;;;;;;17.92;7.03;;;11.00;99.90;;;;;;5048633;28;20025;-46
2024/03/22 06:52:39;;;;;;;11.73;7.03;;;10.90;99.90;;;;;;5049418;28;20112;-48
2024/03/22 06:55:06;;;;;;;17.02;7.55;;;10.90;99.90;;;;;;5050865;28;20059;-48
2024/03/22 06:57:33;;;;;;;14.65;7.55;;;11.00;99.90;;;;;;5049575;28;20029;-46
2024/03/22 06:59:59;;;;;;;14.73;6.22;;;11.00;99.90;;;;;;5049335;28;20108;-47
2024/03/22 07:02:26;;;;;;;12.50;6.85;;;11.10;99.90;;;;;;5050577;28;20132;-48
2024/03/22 07:04:52;;;;;;;13.70;7.45;;;11.10;99.90;;;;;;5051343;28;20323;-47
2024/03/22 07:07:18;;;;;;;17.52;6.78;;;11.10;99.90;;;;;;5050419;28;20029;-47
2024/03/22 07:09:43;;;;;;;14.85;6.75;;;11.10;99.90;;;;;;5050233;28;20410;-48
2024/03/22 07:12:09;;;;;;;16.33;7.93;;;11.20;99.90;;;;;;5048798;28;20025;-48
2024/03/22 07:14:34;;;;;;;14.38;6.85;;;11.30;99.90;;;;;;5050168;28;20033;-47
2024/03/22 07:17:00;;;;;;;14.90;7.28;;;11.30;99.90;;;;;;5050374;28;20029;-49
2024/03/22 07:19:27;;;;;;;14.40;6.88;;;11.50;99.90;;;;;;5053887;28;20036;-49
2024/03/22 07:21:52;;;;;;;12.27;6.88;;;11.70;99.90;;;;;;5050237;28;20021;-49
2024/03/22 07:24:18;;;;;;;11.35;5.90;;;12.20;99.90;;;;;;5047961;28;20035;-49
2024/03/22 07:26:43;;;;;;;18.33;6.60;;;12.50;99.90;;;;;;5049355;28;20043;-48
2024/03/22 07:29:09;;;;;;;14.35;7.05;;;12.70;99.90;;;;;;5048123;28;20025;-49
2024/03/22 07:31:34;;;;;;;10.13;5.57;;;12.80;99.90;;;;;;5050432;28;20104;-50
2024/03/22 07:34:00;;;;;;;11.15;5.90;;;13.00;99.90;;;;;;5050656;28;20078;-50
2024/03/22 07:36:26;;;;;;;12.55;6.25;;;13.20;99.90;;;;;;5049954;28;20533;-49
2024/03/22 07:38:52;;;;;;;11.25;5.82;;;13.20;99.90;;;;;;5048668;28;20037;-48
2024/03/22 07:41:18;;;;;;;12.18;5.82;;;13.30;99.90;;;;;;5042787;28;20496;-51
2024/03/22 07:43:43;;;;;;;9.68;6.13;;;13.60;99.90;;;;;;5029624;27;20132;-49
2024/03/22 07:46:09;;;;;;;12.85;6.57;;;13.80;99.90;;;;;;5045673;28;20501;-49
2024/03/22 07:48:34;;;;;;;10.48;5.72;;;14.10;99.90;;;;;;5049035;28;20423;-48
2024/03/22 07:51:01;;;;;;;13.27;6.10;;;14.20;99.90;;;;;;5047354;28;20029;-49
2024/03/22 07:53:27;;;;;;;10.85;5.82;;;14.30;99.90;;;;;;5051032;28;20036;-49
2024/03/22 07:55:53;;;;;;;10.63;5.25;;;14.40;99.90;;;;;;5048124;28;20025;-48
2024/03/22 07:58:19;;;;;;;11.02;6.35;;;14.50;99.90;;;;;;5046940;28;20025;-53
2024/03/22 08:00:45;;;;;;;14.38;7.28;;;14.60;99.90;;;;;;5046137;28;20150;-49
2024/03/22 08:03:16;;;;;;;10.02;6.53;;;14.50;99.90;;;;;;5044904;28;20103;-49
2024/03/22 08:05:42;;;;;;;12.48;5.78;;;14.40;99.90;;;;;;5049045;28;20033;-49
2024/03/22 08:08:08;;;;;;;12.95;7.00;;;14.50;99.90;;;;;;5049539;28;20116;-49
2024/03/22 08:10:34;;;;;;;12.38;5.97;;;14.50;99.90;;;;;;5046758;28;20108;-49
2024/03/22 08:13:00;;;;;;;12.05;6.75;;;14.50;99.90;;;;;;5049578;28;20017;-49
2024/03/22 08:15:26;;;;;;;11.57;6.90;;;14.60;99.90;;;;;;5048405;28;20422;-48
2024/03/22 08:17:52;;;;;;;14.32;6.28;;;15.20;99.90;;;;;;5049443;28;20029;-49
2024/03/22 08:20:17;;;;;;;10.73;5.97;;;16.00;99.90;;;;;;5041043;28;20506;-49
2024/03/22 08:22:43;;;;;;;11.55;6.35;;;16.50;99.90;;;;;;5042283;28;20051;-49
2024/03/22 08:25:08;;;;;;;10.48;5.57;;;17.20;99.90;;;;;;5046666;28;20384;-50
2024/03/22 08:27:34;;;;;;;10.25;5.68;;;17.60;99.90;;;;;;5048432;28;20044;-48
2024/03/22 08:30:00;;;;;;;10.50;5.60;;;17.70;99.90;;;;;;5048357;28;20394;-49
2024/03/22 08:32:26;;;;;;;12.57;5.93;;;17.50;99.90;;;;;;5047967;28;20040;-50
2024/03/22 08:34:51;;;;;;;16.40;6.05;;;17.40;99.90;;;;;;5047737;28;20078;-50
2024/03/22 08:37:17;;;;;;;12.23;5.80;;;17.00;99.90;;;;;;5050158;28;20033;-49
2024/03/22 08:39:43;;;;;;;12.48;6.20;;;16.60;99.90;;;;;;5049185;28;20079;-48
2024/03/22 08:42:09;;;;;;;12.38;7.75;;;16.40;99.90;;;;;;5047297;28;20408;-48
2024/03/22 08:44:35;;;;;;;14.55;7.25;;;16.00;99.90;;;;;;5029757;28;20040;-49
2024/03/22 08:47:00;;;;;;;16.90;7.75;;;15.80;99.90;;;;;;5043889;28;20028;-49
2024/03/22 08:49:26;;;;;;;17.00;9.57;;;15.70;99.90;;;;;;5049500;28;20446;-49
2024/03/22 08:51:51;;;;;;;16.27;8.55;;;15.80;99.90;;;;;;5054072;28;20079;-49
2024/03/22 08:54:17;;;;;;;18.85;9.95;;;15.90;99.90;;;;;;5048169;28;20029;-48
2024/03/22 08:56:42;;;;;;;21.05;8.85;;;16.20;99.90;;;;;;5053916;28;20035;-48
2024/03/22 08:59:08;;;;;;;17.75;10.20;;;16.60;99.90;;;;;;5053258;28;20405;-50
2024/03/22 09:01:33;;;;;;;15.38;8.90;;;17.00;99.90;;;;;;5053205;28;20029;-47
2024/03/22 09:03:59;;;;;;;15.10;9.30;;;17.50;99.90;;;;;;5050790;28;20024;-48
2024/03/22 09:06:25;;;;;;;16.52;9.45;;;17.60;99.90;;;;;;5052783;28;20033;-49
2024/03/22 09:08:50;;;;;;;15.45;9.82;;;17.60;99.90;;;;;;5053548;28;20033;-49
2024/03/22 09:11:16;;;;;;;16.20;9.52;;;17.70;99.90;;;;;;5050612;28;20458;-49
2024/03/22 09:13:41;;;;;;;17.83;9.15;;;17.10;99.90;;;;;;5051275;28;20166;-48
2024/03/22 09:16:07;;;;;;;19.48;9.15;;;16.90;99.90;;;;;;5053239;28;20143;-49
2024/03/22 09:18:33;;;;;;;20.50;10.02;;;16.80;99.90;;;;;;5056762;28;20029;-50
2024/03/22 09:20:58;;;;;;;20.52;10.05;;;16.80;99.90;;;;;;5052805;28;20035;-48
2024/03/22 09:23:24;;;;;;;17.55;9.95;;;16.50;99.90;;;;;;5052529;28;20027;-49
2024/03/22 09:25:49;;;;;;;17.42;8.73;;;16.80;99.90;;;;;;5048820;28;20087;-49
2024/03/22 09:28:15;;;;;;;17.88;9.60;;;16.80;99.90;;;;;;5053764;28;20486;-49
2024/03/22 09:30:41;;;;;;;18.90;9.27;;;17.20;99.90;;;;;;5053325;28;20107;-49
2024/03/22 09:33:07;;;;;;;14.45;9.45;;;17.60;99.90;;;;;;5051658;28;20025;-49
2024/03/22 09:35:34;;;;;;;17.38;9.95;;;17.70;99.90;;;;;;5048756;28;20044;-49
2024/03/22 09:37:59;;;;;;;14.10;8.75;;;18.10;99.90;;;;;;5052324;28;20484;-49
2024/03/22 09:40:25;;;;;;;16.30;9.73;;;18.20;99.90;;;;;;5045194;28;20037;-49
2024/03/22 09:42:53;;;;;;;16.40;8.95;;;18.20;99.90;;;;;;5052773;28;20039;-49
2024/03/22 09:45:20;;;;;;;16.45;8.57;;;17.90;99.90;;;;;;5037973;28;20048;-49
2024/03/22 09:47:49;;;;;;;23.67;8.52;;;17.90;99.90;;;;;;5050523;28;20028;-49
2024/03/22 09:50:15;;;;;;;13.57;6.80;;;17.80;99.90;;;;;;5051154;28;20029;-49
2024/03/22 09:52:42;;;;;;;11.90;7.10;;;17.80;99.90;;;;;;5056702;28;20025;-49
2024/03/22 09:55:08;;;;;;;15.18;6.63;;;17.60;99.90;;;;;;5052537;28;20024;-48
2024/03/22 09:57:38;;;;;;;12.20;6.10;;;17.40;99.90;;;;;;5050618;28;20020;-49
2024/03/22 10:00:08;;;;;;;13.50;5.85;;;17.20;99.90;;;;;;5051200;28;20032;-52
2024/03/22 10:02:34;;;;;;;10.40;5.95;;;17.10;99.90;;;;;;5051360;28;20036;-49
2024/03/22 10:05:00;;;;;;;11.18;5.70;;;17.20;99.90;;;;;;5052091;28;20845;-49
2024/03/22 10:07:26;;;;;;;9.75;5.35;;;17.50;99.90;;;;;;5051548;28;20029;-49
2024/03/22 10:09:52;;;;;;;11.68;5.43;;;17.90;99.90;;;;;;5055980;28;20570;-50
2024/03/22 10:12:17;;;;;;;13.88;5.32;;;18.20;99.90;;;;;;5051213;28;20029;-51
2024/03/22 10:14:43;;;;;;;8.73;4.35;;;18.30;99.90;;;;;;5051388;28;20392;-48
2024/03/22 10:17:10;;;;;;;8.25;4.38;;;18.60;99.90;;;;;;5046607;28;20120;-48
2024/03/22 10:19:36;;;;;;;8.07;4.97;;;18.30;99.80;;;;;;5050386;28;20044;-50
2024/03/22 10:22:08;;;;;;;8.52;4.90;;;18.00;99.90;;;;;;5042727;28;20467;-49
2024/03/22 10:24:33;;;;;;;8.13;4.47;;;17.70;99.90;;;;;;5048895;28;20033;-48
2024/03/22 10:27:00;;;;;;;5.95;4.00;;;17.60;99.90;;;;;;5051775;28;20044;-49
2024/03/22 10:29:25;;;;;;;8.05;4.68;;;17.70;99.90;;;;;;5049656;28;20029;-48
2024/03/22 10:31:55;;;;;;;8.38;4.68;;;17.70;99.90;;;;;;5050588;28;20028;-50
2024/03/22 10:34:22;;;;;;;10.70;4.40;;;17.60;99.90;;;;;;5051108;28;20032;-50
2024/03/22 10:36:48;;;;;;;9.88;4.95;;;17.70;99.90;;;;;;5050431;28;20048;-49
2024/03/22 10:39:17;;;;;;;7.13;4.47;;;17.90;99.90;;;;;;5051286;28;20031;-49
2024/03/22 10:41:45;;;;;;;12.40;5.25;;;17.80;99.90;;;;;;5051404;28;20025;-50
2024/03/22 10:44:10;;;;;;;9.75;4.22;;;17.80;99.90;;;;;;5030595;28;20053;-49
2024/03/22 10:46:37;;;;;;;9.20;4.22;;;17.80;99.90;;;;;;5050979;28;20422;-49
2024/03/22 10:49:05;;;;;;;8.95;3.92;;;17.70;99.90;;;;;;5050847;28;20123;-49
2024/03/22 10:51:31;;;;;;;9.48;4.40;;;17.60;99.90;;;;;;5050586;28;20367;-48
2024/03/22 10:53:59;;;;;;;12.48;5.45;;;17.60;99.90;;;;;;5049424;28;20028;-48
2024/03/22 10:56:25;;;;;;;11.43;5.07;;;17.40;99.90;;;;;;5050620;28;20540;-47
2024/03/22 10:58:52;;;;;;;9.43;4.55;;;17.40;99.90;;;;;;5052384;28;20071;-49
2024/03/22 11:01:26;;;;;;;7.65;4.22;;;17.40;99.90;;;;;;5048633;28;20470;-49
2024/03/22 11:04:03;;;;;;;7.72;4.38;;;17.40;99.90;;;;;;5047028;28;20133;-48
2024/03/22 11:06:30;;;;;;;7.95;4.55;;;17.10;99.90;;;;;;5049269;28;20494;-50
2024/03/22 11:09:01;;;;;;;7.70;5.13;;;17.10;99.90;;;;;;5050695;28;20017;-50
2024/03/22 11:11:29;;;;;;;7.60;4.85;;;17.00;99.90;;;;;;5043317;28;20033;-49
2024/03/22 11:13:56;;;;;;;10.02;4.70;;;17.20;99.90;;;;;;5051252;28;20103;-49
2024/03/22 11:16:21;;;;;;;8.38;4.10;;;17.20;99.90;;;;;;5051099;28;20135;-47
2024/03/22 11:18:48;;;;;;;8.00;4.38;;;17.30;99.90;;;;;;5049477;28;20029;-49
2024/03/22 11:21:14;;;;;;;7.93;3.80;;;17.40;99.90;;;;;;5050162;28;20021;-49
2024/03/22 11:23:40;;;;;;;8.18;3.58;;;17.40;99.90;;;;;;5050569;28;20408;-48
2024/03/22 11:26:07;;;;;;;6.53;2.78;;;17.60;99.90;;;;;;5045327;28;20041;-50
2024/03/22 11:28:33;;;;;;;9.43;3.33;;;17.70;99.90;;;;;;5049387;28;20025;-50
2024/03/22 11:30:59;;;;;;;4.22;2.65;;;17.60;99.90;;;;;;5095172;22;20405;-48
2024/03/22 11:33:26;;;;;;;5.57;3.33;;;17.70;99.90;;;;;;5073081;28;20028;-47
2024/03/22 11:35:52;;;;;;;5.30;3.17;;;17.80;99.60;;;;;;5073396;28;20361;-46
2024/03/22 11:38:18;;;;;;;8.68;3.65;;;17.70;99.00;;;;;;5072702;28;20024;-46
2024/03/22 11:40:45;;;;;;;5.65;3.10;;;17.80;99.80;;;;;;5066987;28;20043;-46
2024/03/22 11:43:14;;;;;;;6.63;2.95;;;18.00;99.20;;;;;;5070939;28;20094;-46
2024/03/22 11:45:40;;;;;;;7.03;3.28;;;18.00;99.50;;;;;;5042548;28;20052;-46
2024/03/22 11:48:07;;;;;;;11.48;3.85;;;18.00;98.40;;;;;;5068992;28;20037;-47
2024/03/22 11:50:32;;;;;;;4.80;2.95;;;18.10;99.20;;;;;;5065385;28;20193;-48
2024/03/22 11:52:58;;;;;;;5.55;3.55;;;18.20;99.10;;;;;;5070243;28;20132;-47
2024/03/22 11:55:27;;;;;;;9.05;3.38;;;18.30;98.80;;;;;;5067858;28;20028;-48
2024/03/22 11:57:53;;;;;;;6.35;3.70;;;18.60;98.70;;;;;;5066945;28;20095;-48
2024/03/22 12:00:18;;;;;;;7.57;3.75;;;18.40;98.30;;;;;;5065657;28;20071;-46
2024/03/22 12:02:45;;;;;;;8.93;3.90;;;18.30;98.10;;;;;;5065061;28;20090;-46
2024/03/22 12:05:11;;;;;;;5.60;3.47;;;18.40;98.60;;;;;;5066812;28;20036;-48
2024/03/22 12:07:37;;;;;;;5.90;3.40;;;18.80;98.40;;;;;;5061848;28;20402;-47
2024/03/22 12:10:03;;;;;;;6.15;3.10;;;18.80;97.40;;;;;;5068449;28;20090;-47
2024/03/22 12:12:29;;;;;;;4.30;3.47;;;18.60;98.20;;;;;;5064841;28;20017;-47
2024/03/22 12:14:55;;;;;;;5.85;3.35;;;18.30;98.00;;;;;;5068947;28;20407;-46
2024/03/22 12:17:21;;;;;;;8.45;3.55;;;18.10;98.40;;;;;;5066079;28;20033;-46
2024/03/22 12:19:47;;;;;;;6.35;3.53;;;18.00;98.40;;;;;;5062022;28;20488;-48
2024/03/22 12:22:13;;;;;;;6.97;4.22;;;18.00;98.60;;;;;;5061790;28;20115;-47
2024/03/22 12:24:38;;;;;;;5.07;3.15;;;18.00;98.70;;;;;;5064534;28;20024;-47
2024/03/22 12:27:04;;;;;;;6.03;4.38;;;17.80;98.50;;;;;;5068164;28;20041;-47
2024/03/22 12:29:33;;;;;;;4.80;3.10;;;17.80;98.70;;;;;;5065075;28;20029;-49
2024/03/22 12:32:01;;;;;;;5.95;3.97;;;17.90;98.60;;;;;;5069497;28;20041;-47